sensor_id;sensor_type;location;lat;lon;timestamp;P1;durP1;ratioP1;P2;durP2;ratioP2
77078;SDS011;66004;55.096;38.760;2022-12-18T00:01:33;14.63;;;5.80;;
77078;SDS011;66004;55.096;38.760;2022-12-18T00:04:01;11.43;;;6.30;;
77078;SDS011;66004;55.096;38.760;2022-12-18T00:06:29;9.32;;;5.50;;
77078;SDS011;66004;55.096;38.760;2022-12-18T00:08:55;10.55;;;4.85;;
77078;SDS011;66004;55.096;38.760;2022-12-18T00:11:24;8.25;;;3.70;;
77078;SDS011;66004;55.096;38.760;2022-12-18T00:13:53;6.28;;;3.55;;
77078;SDS011;66004;55.096;38.760;2022-12-18T00:16:20;6.47;;;3.90;;
77078;SDS011;66004;55.096;38.760;2022-12-18T00:18:48;6.45;;;3.38;;
77078;SDS011;66004;55.096;38.760;2022-12-18T00:21:16;6.50;;;3.70;;
77078;SDS011;66004;55.096;38.760;2022-12-18T00:23:42;7.47;;;4.00;;
77078;SDS011;66004;55.096;38.760;2022-12-18T00:26:13;7.38;;;3.92;;
77078;SDS011;66004;55.096;38.760;2022-12-18T00:28:40;6.20;;;2.95;;
77078;SDS011;66004;55.096;38.760;2022-12-18T00:31:07;6.72;;;3.17;;
77078;SDS011;66004;55.096;38.760;2022-12-18T00:33:35;6.65;;;3.17;;
77078;SDS011;66004;55.096;38.760;2022-12-18T00:36:05;6.13;;;3.53;;
77078;SDS011;66004;55.096;38.760;2022-12-18T00:38:45;6.38;;;3.53;;
77078;SDS011;66004;55.096;38.760;2022-12-18T00:43:37;9.65;;;3.38;;
77078;SDS011;66004;55.096;38.760;2022-12-18T00:46:03;7.30;;;3.55;;
77078;SDS011;66004;55.096;38.760;2022-12-18T00:48:29;6.22;;;3.40;;
77078;SDS011;66004;55.096;38.760;2022-12-18T00:50:55;6.43;;;3.55;;
77078;SDS011;66004;55.096;38.760;2022-12-18T00:53:21;9.25;;;3.60;;
77078;SDS011;66004;55.096;38.760;2022-12-18T00:55:46;7.40;;;3.80;;
77078;SDS011;66004;55.096;38.760;2022-12-18T00:58:13;6.60;;;4.13;;
77078;SDS011;66004;55.096;38.760;2022-12-18T01:00:39;8.40;;;4.13;;
77078;SDS011;66004;55.096;38.760;2022-12-18T01:03:05;5.45;;;3.28;;
77078;SDS011;66004;55.096;38.760;2022-12-18T01:05:31;8.45;;;4.10;;
77078;SDS011;66004;55.096;38.760;2022-12-18T01:07:57;10.65;;;4.10;;
77078;SDS011;66004;55.096;38.760;2022-12-18T01:10:24;6.72;;;3.45;;
77078;SDS011;66004;55.096;38.760;2022-12-18T01:15:15;6.75;;;3.60;;
77078;SDS011;66004;55.096;38.760;2022-12-18T01:17:41;8.23;;;3.83;;
77078;SDS011;66004;55.096;38.760;2022-12-18T01:20:08;6.45;;;3.08;;
77078;SDS011;66004;55.096;38.760;2022-12-18T01:22:36;6.03;;;3.70;;
77078;SDS011;66004;55.096;38.760;2022-12-18T01:25:02;6.53;;;3.75;;
77078;SDS011;66004;55.096;38.760;2022-12-18T01:27:29;8.07;;;3.53;;
77078;SDS011;66004;55.096;38.760;2022-12-18T01:29:55;6.97;;;3.45;;
77078;SDS011;66004;55.096;38.760;2022-12-18T01:32:21;6.85;;;3.88;;
77078;SDS011;66004;55.096;38.760;2022-12-18T01:34:47;7.25;;;3.92;;
77078;SDS011;66004;55.096;38.760;2022-12-18T01:37:13;6.07;;;3.90;;
77078;SDS011;66004;55.096;38.760;2022-12-18T01:39:38;6.65;;;3.72;;
77078;SDS011;66004;55.096;38.760;2022-12-18T01:42:05;7.07;;;4.15;;
77078;SDS011;66004;55.096;38.760;2022-12-18T01:47:33;7.13;;;3.53;;
77078;SDS011;66004;55.096;38.760;2022-12-18T01:50:03;6.18;;;3.40;;
77078;SDS011;66004;55.096;38.760;2022-12-18T01:52:32;7.07;;;4.20;;
77078;SDS011;66004;55.096;38.760;2022-12-18T01:54:59;5.90;;;3.67;;
77078;SDS011;66004;55.096;38.760;2022-12-18T01:57:26;7.30;;;3.85;;
77078;SDS011;66004;55.096;38.760;2022-12-18T01:59:54;6.53;;;3.38;;
77078;SDS011;66004;55.096;38.760;2022-12-18T02:02:24;6.72;;;3.40;;
77078;SDS011;66004;55.096;38.760;2022-12-18T02:04:52;7.45;;;4.18;;
77078;SDS011;66004;55.096;38.760;2022-12-18T02:13:36;5.82;;;3.47;;
77078;SDS011;66004;55.096;38.760;2022-12-18T02:16:31;7.80;;;3.95;;
77078;SDS011;66004;55.096;38.760;2022-12-18T02:28:06;6.80;;;3.67;;
77078;SDS011;66004;55.096;38.760;2022-12-18T02:30:36;6.05;;;3.53;;
77078;SDS011;66004;55.096;38.760;2022-12-18T02:33:04;7.63;;;4.63;;
77078;SDS011;66004;55.096;38.760;2022-12-18T02:35:32;8.05;;;3.85;;
77078;SDS011;66004;55.096;38.760;2022-12-18T02:37:59;7.50;;;4.70;;
77078;SDS011;66004;55.096;38.760;2022-12-18T02:40:27;5.47;;;3.53;;
77078;SDS011;66004;55.096;38.760;2022-12-18T02:42:54;7.13;;;4.45;;
77078;SDS011;66004;55.096;38.760;2022-12-18T02:45:20;7.15;;;4.10;;
77078;SDS011;66004;55.096;38.760;2022-12-18T02:47:46;6.55;;;4.15;;
77078;SDS011;66004;55.096;38.760;2022-12-18T03:01:20;6.88;;;3.70;;
77078;SDS011;66004;55.096;38.760;2022-12-18T03:04:01;7.43;;;4.13;;
77078;SDS011;66004;55.096;38.760;2022-12-18T03:06:41;9.35;;;4.38;;
77078;SDS011;66004;55.096;38.760;2022-12-18T03:09:21;7.88;;;4.10;;
77078;SDS011;66004;55.096;38.760;2022-12-18T03:11:56;7.60;;;4.40;;
77078;SDS011;66004;55.096;38.760;2022-12-18T03:14:47;9.43;;;4.97;;
77078;SDS011;66004;55.096;38.760;2022-12-18T03:17:20;10.05;;;6.07;;
77078;SDS011;66004;55.096;38.760;2022-12-18T03:19:48;8.95;;;4.63;;
77078;SDS011;66004;55.096;38.760;2022-12-18T03:22:16;8.20;;;4.93;;
77078;SDS011;66004;55.096;38.760;2022-12-18T03:27:10;7.85;;;4.78;;
77078;SDS011;66004;55.096;38.760;2022-12-18T03:29:38;9.88;;;5.30;;
77078;SDS011;66004;55.096;38.760;2022-12-18T03:32:09;7.55;;;4.28;;
77078;SDS011;66004;55.096;38.760;2022-12-18T03:34:40;9.35;;;5.20;;
77078;SDS011;66004;55.096;38.760;2022-12-18T03:37:09;10.80;;;5.35;;
77078;SDS011;66004;55.096;38.760;2022-12-18T03:39:35;9.30;;;4.75;;
77078;SDS011;66004;55.096;38.760;2022-12-18T03:44:29;11.73;;;6.27;;
77078;SDS011;66004;55.096;38.760;2022-12-18T03:55:01;9.25;;;4.85;;
77078;SDS011;66004;55.096;38.760;2022-12-18T03:57:29;12.18;;;6.55;;
77078;SDS011;66004;55.096;38.760;2022-12-18T03:59:58;13.55;;;6.47;;
77078;SDS011;66004;55.096;38.760;2022-12-18T04:02:30;8.80;;;5.18;;
77078;SDS011;66004;55.096;38.760;2022-12-18T04:04:58;10.27;;;5.47;;
77078;SDS011;66004;55.096;38.760;2022-12-18T04:07:26;10.77;;;6.60;;
77078;SDS011;66004;55.096;38.760;2022-12-18T04:09:53;12.70;;;6.50;;
77078;SDS011;66004;55.096;38.760;2022-12-18T04:12:24;14.73;;;7.10;;
77078;SDS011;66004;55.096;38.760;2022-12-18T04:14:54;14.90;;;7.63;;
77078;SDS011;66004;55.096;38.760;2022-12-18T04:17:19;16.88;;;9.48;;
77078;SDS011;66004;55.096;38.760;2022-12-18T04:19:45;18.60;;;9.55;;
77078;SDS011;66004;55.096;38.760;2022-12-18T04:22:11;15.98;;;8.45;;
77078;SDS011;66004;55.096;38.760;2022-12-18T04:24:36;19.20;;;9.60;;
77078;SDS011;66004;55.096;38.760;2022-12-18T04:27:02;11.32;;;6.45;;
77078;SDS011;66004;55.096;38.760;2022-12-18T04:29:28;13.02;;;7.03;;
77078;SDS011;66004;55.096;38.760;2022-12-18T04:31:54;9.93;;;5.55;;
77078;SDS011;66004;55.096;38.760;2022-12-18T04:34:19;12.23;;;5.63;;
77078;SDS011;66004;55.096;38.760;2022-12-18T04:36:45;9.98;;;5.90;;
77078;SDS011;66004;55.096;38.760;2022-12-18T04:39:11;10.82;;;5.35;;
77078;SDS011;66004;55.096;38.760;2022-12-18T04:41:37;9.18;;;5.38;;
77078;SDS011;66004;55.096;38.760;2022-12-18T04:44:03;7.20;;;4.28;;
77078;SDS011;66004;55.096;38.760;2022-12-18T04:46:29;7.28;;;4.53;;
77078;SDS011;66004;55.096;38.760;2022-12-18T04:48:55;8.68;;;4.60;;
77078;SDS011;66004;55.096;38.760;2022-12-18T04:51:20;7.80;;;4.60;;
77078;SDS011;66004;55.096;38.760;2022-12-18T04:53:46;8.45;;;4.43;;
77078;SDS011;66004;55.096;38.760;2022-12-18T04:56:12;7.93;;;5.15;;
77078;SDS011;66004;55.096;38.760;2022-12-18T04:58:40;8.02;;;4.18;;
77078;SDS011;66004;55.096;38.760;2022-12-18T05:01:07;9.93;;;4.70;;
77078;SDS011;66004;55.096;38.760;2022-12-18T05:03:34;9.25;;;5.47;;
77078;SDS011;66004;55.096;38.760;2022-12-18T05:06:01;9.43;;;4.78;;
77078;SDS011;66004;55.096;38.760;2022-12-18T05:08:27;9.10;;;5.13;;
77078;SDS011;66004;55.096;38.760;2022-12-18T05:11:14;9.30;;;4.60;;
77078;SDS011;66004;55.096;38.760;2022-12-18T05:13:41;5.93;;;3.75;;
77078;SDS011;66004;55.096;38.760;2022-12-18T05:16:07;9.52;;;4.85;;
77078;SDS011;66004;55.096;38.760;2022-12-18T05:18:33;8.68;;;5.03;;
77078;SDS011;66004;55.096;38.760;2022-12-18T05:20:59;9.38;;;5.50;;
77078;SDS011;66004;55.096;38.760;2022-12-18T05:23:25;9.02;;;4.53;;
77078;SDS011;66004;55.096;38.760;2022-12-18T05:25:55;11.73;;;5.68;;
77078;SDS011;66004;55.096;38.760;2022-12-18T05:28:22;8.90;;;4.28;;
77078;SDS011;66004;55.096;38.760;2022-12-18T05:30:50;8.68;;;5.45;;
77078;SDS011;66004;55.096;38.760;2022-12-18T05:33:20;14.52;;;6.18;;
77078;SDS011;66004;55.096;38.760;2022-12-18T05:35:54;12.20;;;6.32;;
77078;SDS011;66004;55.096;38.760;2022-12-18T05:38:21;12.95;;;6.65;;
77078;SDS011;66004;55.096;38.760;2022-12-18T05:40:47;14.10;;;6.78;;
77078;SDS011;66004;55.096;38.760;2022-12-18T05:43:14;10.63;;;5.82;;
77078;SDS011;66004;55.096;38.760;2022-12-18T05:45:40;10.70;;;5.95;;
77078;SDS011;66004;55.096;38.760;2022-12-18T05:48:07;10.50;;;5.28;;
77078;SDS011;66004;55.096;38.760;2022-12-18T05:50:36;13.25;;;8.23;;
77078;SDS011;66004;55.096;38.760;2022-12-18T05:53:03;12.50;;;6.05;;
77078;SDS011;66004;55.096;38.760;2022-12-18T05:55:32;9.90;;;6.07;;
77078;SDS011;66004;55.096;38.760;2022-12-18T05:57:59;11.10;;;6.90;;
77078;SDS011;66004;55.096;38.760;2022-12-18T06:00:25;15.82;;;7.00;;
77078;SDS011;66004;55.096;38.760;2022-12-18T06:02:50;13.25;;;6.82;;
77078;SDS011;66004;55.096;38.760;2022-12-18T06:05:17;13.88;;;7.20;;
77078;SDS011;66004;55.096;38.760;2022-12-18T06:07:43;12.43;;;6.95;;
77078;SDS011;66004;55.096;38.760;2022-12-18T06:10:09;13.27;;;6.68;;
77078;SDS011;66004;55.096;38.760;2022-12-18T06:12:35;14.10;;;6.93;;
77078;SDS011;66004;55.096;38.760;2022-12-18T06:15:00;14.27;;;7.43;;
77078;SDS011;66004;55.096;38.760;2022-12-18T06:17:29;13.10;;;6.28;;
77078;SDS011;66004;55.096;38.760;2022-12-18T06:19:55;10.90;;;6.93;;
77078;SDS011;66004;55.096;38.760;2022-12-18T06:22:21;12.98;;;6.20;;
77078;SDS011;66004;55.096;38.760;2022-12-18T06:24:47;10.70;;;5.50;;
77078;SDS011;66004;55.096;38.760;2022-12-18T06:27:12;10.13;;;6.00;;
77078;SDS011;66004;55.096;38.760;2022-12-18T06:29:38;11.52;;;6.28;;
77078;SDS011;66004;55.096;38.760;2022-12-18T06:32:04;9.57;;;5.45;;
77078;SDS011;66004;55.096;38.760;2022-12-18T06:34:29;11.68;;;6.75;;
77078;SDS011;66004;55.096;38.760;2022-12-18T06:36:55;12.32;;;6.43;;
77078;SDS011;66004;55.096;38.760;2022-12-18T06:39:20;10.52;;;6.55;;
77078;SDS011;66004;55.096;38.760;2022-12-18T06:41:46;8.25;;;5.05;;
77078;SDS011;66004;55.096;38.760;2022-12-18T06:44:11;9.60;;;5.70;;
77078;SDS011;66004;55.096;38.760;2022-12-18T06:46:37;11.80;;;6.38;;
77078;SDS011;66004;55.096;38.760;2022-12-18T06:49:03;10.63;;;6.20;;
77078;SDS011;66004;55.096;38.760;2022-12-18T06:51:28;11.80;;;6.50;;
77078;SDS011;66004;55.096;38.760;2022-12-18T06:53:54;10.18;;;5.15;;
77078;SDS011;66004;55.096;38.760;2022-12-18T06:56:19;15.75;;;7.25;;
77078;SDS011;66004;55.096;38.760;2022-12-18T06:58:45;16.90;;;6.40;;
77078;SDS011;66004;55.096;38.760;2022-12-18T07:01:11;14.35;;;7.30;;
77078;SDS011;66004;55.096;38.760;2022-12-18T07:06:03;9.10;;;5.32;;
77078;SDS011;66004;55.096;38.760;2022-12-18T07:08:30;9.98;;;5.95;;
77078;SDS011;66004;55.096;38.760;2022-12-18T07:10:56;10.95;;;5.70;;
77078;SDS011;66004;55.096;38.760;2022-12-18T07:13:22;11.55;;;6.47;;
77078;SDS011;66004;55.096;38.760;2022-12-18T07:15:48;11.32;;;6.28;;
77078;SDS011;66004;55.096;38.760;2022-12-18T07:18:13;10.63;;;6.03;;
77078;SDS011;66004;55.096;38.760;2022-12-18T07:20:39;8.02;;;5.20;;
77078;SDS011;66004;55.096;38.760;2022-12-18T07:23:04;9.77;;;5.47;;
77078;SDS011;66004;55.096;38.760;2022-12-18T07:25:39;8.85;;;5.22;;
77078;SDS011;66004;55.096;38.760;2022-12-18T07:28:05;10.20;;;7.28;;
77078;SDS011;66004;55.096;38.760;2022-12-18T07:30:31;10.52;;;6.03;;
77078;SDS011;66004;55.096;38.760;2022-12-18T07:32:56;9.00;;;6.85;;
77078;SDS011;66004;55.096;38.760;2022-12-18T07:35:22;9.25;;;4.88;;
77078;SDS011;66004;55.096;38.760;2022-12-18T07:37:47;9.57;;;5.88;;
77078;SDS011;66004;55.096;38.760;2022-12-18T07:40:13;9.45;;;5.35;;
77078;SDS011;66004;55.096;38.760;2022-12-18T07:42:38;10.60;;;5.75;;
77078;SDS011;66004;55.096;38.760;2022-12-18T07:45:04;10.07;;;4.97;;
77078;SDS011;66004;55.096;38.760;2022-12-18T07:47:30;9.80;;;5.28;;
77078;SDS011;66004;55.096;38.760;2022-12-18T07:49:55;7.68;;;4.07;;
77078;SDS011;66004;55.096;38.760;2022-12-18T07:52:21;8.13;;;4.68;;
77078;SDS011;66004;55.096;38.760;2022-12-18T07:54:46;9.55;;;5.35;;
77078;SDS011;66004;55.096;38.760;2022-12-18T07:57:15;7.82;;;5.20;;
77078;SDS011;66004;55.096;38.760;2022-12-18T07:59:41;9.00;;;4.80;;
77078;SDS011;66004;55.096;38.760;2022-12-18T08:02:06;9.23;;;4.95;;
77078;SDS011;66004;55.096;38.760;2022-12-18T08:04:32;10.35;;;5.53;;
77078;SDS011;66004;55.096;38.760;2022-12-18T08:06:58;11.43;;;5.57;;
77078;SDS011;66004;55.096;38.760;2022-12-18T08:09:23;8.70;;;4.72;;
77078;SDS011;66004;55.096;38.760;2022-12-18T08:11:49;9.23;;;5.25;;
77078;SDS011;66004;55.096;38.760;2022-12-18T08:14:14;8.48;;;4.75;;
77078;SDS011;66004;55.096;38.760;2022-12-18T08:16:40;7.68;;;5.07;;
77078;SDS011;66004;55.096;38.760;2022-12-18T08:19:05;8.77;;;4.88;;
77078;SDS011;66004;55.096;38.760;2022-12-18T08:21:31;7.75;;;4.88;;
77078;SDS011;66004;55.096;38.760;2022-12-18T08:24:00;6.93;;;4.18;;
77078;SDS011;66004;55.096;38.760;2022-12-18T08:26:27;10.15;;;4.60;;
77078;SDS011;66004;55.096;38.760;2022-12-18T08:28:55;9.48;;;5.55;;
77078;SDS011;66004;55.096;38.760;2022-12-18T08:31:21;8.43;;;4.57;;
77078;SDS011;66004;55.096;38.760;2022-12-18T08:33:48;7.60;;;5.43;;
77078;SDS011;66004;55.096;38.760;2022-12-18T08:36:15;9.85;;;6.15;;
77078;SDS011;66004;55.096;38.760;2022-12-18T08:38:41;8.70;;;5.07;;
77078;SDS011;66004;55.096;38.760;2022-12-18T08:41:07;8.93;;;5.28;;
77078;SDS011;66004;55.096;38.760;2022-12-18T08:43:36;7.20;;;4.50;;
77078;SDS011;66004;55.096;38.760;2022-12-18T08:46:21;6.78;;;4.10;;
77078;SDS011;66004;55.096;38.760;2022-12-18T08:48:50;8.25;;;5.32;;
77078;SDS011;66004;55.096;38.760;2022-12-18T08:51:16;8.80;;;5.07;;
77078;SDS011;66004;55.096;38.760;2022-12-18T08:53:42;9.30;;;4.22;;
77078;SDS011;66004;55.096;38.760;2022-12-18T08:56:09;9.63;;;6.05;;
77078;SDS011;66004;55.096;38.760;2022-12-18T08:58:35;10.45;;;6.53;;
77078;SDS011;66004;55.096;38.760;2022-12-18T09:01:03;9.55;;;6.45;;
77078;SDS011;66004;55.096;38.760;2022-12-18T09:03:30;8.95;;;5.25;;
77078;SDS011;66004;55.096;38.760;2022-12-18T09:05:57;9.50;;;5.10;;
77078;SDS011;66004;55.096;38.760;2022-12-18T09:08:23;9.10;;;5.50;;
77078;SDS011;66004;55.096;38.760;2022-12-18T09:10:49;11.32;;;5.70;;
77078;SDS011;66004;55.096;38.760;2022-12-18T09:13:15;7.80;;;4.55;;
77078;SDS011;66004;55.096;38.760;2022-12-18T09:15:45;8.90;;;4.88;;
77078;SDS011;66004;55.096;38.760;2022-12-18T09:18:13;8.10;;;4.65;;
77078;SDS011;66004;55.096;38.760;2022-12-18T09:20:40;9.48;;;5.93;;
77078;SDS011;66004;55.096;38.760;2022-12-18T09:23:06;10.68;;;5.43;;
77078;SDS011;66004;55.096;38.760;2022-12-18T09:25:32;7.53;;;4.28;;
77078;SDS011;66004;55.096;38.760;2022-12-18T09:27:59;7.85;;;4.65;;
77078;SDS011;66004;55.096;38.760;2022-12-18T09:30:25;9.05;;;5.70;;
77078;SDS011;66004;55.096;38.760;2022-12-18T09:32:51;8.70;;;4.22;;
77078;SDS011;66004;55.096;38.760;2022-12-18T09:35:20;8.20;;;4.35;;
77078;SDS011;66004;55.096;38.760;2022-12-18T09:37:46;9.00;;;4.85;;
77078;SDS011;66004;55.096;38.760;2022-12-18T09:40:19;5.90;;;3.67;;
77078;SDS011;66004;55.096;38.760;2022-12-18T09:42:48;9.88;;;5.75;;
77078;SDS011;66004;55.096;38.760;2022-12-18T09:45:18;9.63;;;5.85;;
77078;SDS011;66004;55.096;38.760;2022-12-18T09:47:45;10.43;;;5.53;;
77078;SDS011;66004;55.096;38.760;2022-12-18T09:50:22;10.98;;;5.88;;
77078;SDS011;66004;55.096;38.760;2022-12-18T09:52:50;15.77;;;9.32;;
77078;SDS011;66004;55.096;38.760;2022-12-18T09:55:34;11.10;;;5.82;;
77078;SDS011;66004;55.096;38.760;2022-12-18T10:00:57;10.77;;;6.20;;
77078;SDS011;66004;55.096;38.760;2022-12-18T10:03:22;10.35;;;5.95;;
77078;SDS011;66004;55.096;38.760;2022-12-18T10:06:02;11.32;;;5.30;;
77078;SDS011;66004;55.096;38.760;2022-12-18T10:08:43;10.88;;;6.40;;
77078;SDS011;66004;55.096;38.760;2022-12-18T10:11:29;12.32;;;5.43;;
77078;SDS011;66004;55.096;38.760;2022-12-18T10:17:00;7.72;;;4.25;;
77078;SDS011;66004;55.096;38.760;2022-12-18T10:25:17;6.75;;;4.30;;
77078;SDS011;66004;55.096;38.760;2022-12-18T10:28:14;10.02;;;5.22;;
77078;SDS011;66004;55.096;38.760;2022-12-18T10:30:42;9.48;;;5.68;;
77078;SDS011;66004;55.096;38.760;2022-12-18T10:35:48;9.05;;;5.45;;
77078;SDS011;66004;55.096;38.760;2022-12-18T10:40:50;10.75;;;5.32;;
77078;SDS011;66004;55.096;38.760;2022-12-18T10:43:20;13.07;;;5.57;;
77078;SDS011;66004;55.096;38.760;2022-12-18T10:48:28;9.00;;;4.90;;
77078;SDS011;66004;55.096;38.760;2022-12-18T10:50:55;9.90;;;5.60;;
77078;SDS011;66004;55.096;38.760;2022-12-18T10:53:23;7.05;;;4.05;;
77078;SDS011;66004;55.096;38.760;2022-12-18T10:55:50;9.07;;;4.72;;
77078;SDS011;66004;55.096;38.760;2022-12-18T10:58:31;9.60;;;5.45;;
77078;SDS011;66004;55.096;38.760;2022-12-18T11:06:12;9.75;;;4.70;;
77078;SDS011;66004;55.096;38.760;2022-12-18T11:08:43;7.47;;;4.05;;
77078;SDS011;66004;55.096;38.760;2022-12-18T11:11:22;8.43;;;4.45;;
77078;SDS011;66004;55.096;38.760;2022-12-18T11:13:58;15.38;;;6.38;;
77078;SDS011;66004;55.096;38.760;2022-12-18T11:16:27;9.55;;;6.03;;
77078;SDS011;66004;55.096;38.760;2022-12-18T11:18:59;7.93;;;4.40;;
77078;SDS011;66004;55.096;38.760;2022-12-18T11:21:41;7.22;;;4.22;;
77078;SDS011;66004;55.096;38.760;2022-12-18T11:24:13;7.80;;;4.57;;
77078;SDS011;66004;55.096;38.760;2022-12-18T11:27:03;12.80;;;6.30;;
77078;SDS011;66004;55.096;38.760;2022-12-18T11:29:34;7.53;;;4.47;;
77078;SDS011;66004;55.096;38.760;2022-12-18T11:34:49;9.38;;;4.47;;
77078;SDS011;66004;55.096;38.760;2022-12-18T11:37:36;12.32;;;5.57;;
77078;SDS011;66004;55.096;38.760;2022-12-18T11:40:23;9.43;;;5.65;;
77078;SDS011;66004;55.096;38.760;2022-12-18T11:45:51;8.25;;;4.35;;
77078;SDS011;66004;55.096;38.760;2022-12-18T11:48:40;10.18;;;4.80;;
77078;SDS011;66004;55.096;38.760;2022-12-18T11:51:25;8.68;;;5.28;;
77078;SDS011;66004;55.096;38.760;2022-12-18T11:53:57;7.43;;;4.75;;
77078;SDS011;66004;55.096;38.760;2022-12-18T11:56:32;10.32;;;5.10;;
77078;SDS011;66004;55.096;38.760;2022-12-18T11:59:09;9.55;;;5.55;;
77078;SDS011;66004;55.096;38.760;2022-12-18T12:02:04;7.80;;;4.32;;
77078;SDS011;66004;55.096;38.760;2022-12-18T12:15:39;8.63;;;4.18;;
77078;SDS011;66004;55.096;38.760;2022-12-18T12:18:28;7.50;;;3.53;;
77078;SDS011;66004;55.096;38.760;2022-12-18T12:21:24;8.82;;;4.60;;
77078;SDS011;66004;55.096;38.760;2022-12-18T12:24:16;7.70;;;4.25;;
77078;SDS011;66004;55.096;38.760;2022-12-18T12:29:57;10.02;;;4.47;;
77078;SDS011;66004;55.096;38.760;2022-12-18T12:32:38;8.57;;;5.38;;
77078;SDS011;66004;55.096;38.760;2022-12-18T12:40:29;10.77;;;5.47;;
77078;SDS011;66004;55.096;38.760;2022-12-18T12:43:04;12.20;;;5.45;;
77078;SDS011;66004;55.096;38.760;2022-12-18T12:45:56;5.93;;;3.20;;
77078;SDS011;66004;55.096;38.760;2022-12-18T12:51:10;9.20;;;3.78;;
77078;SDS011;66004;55.096;38.760;2022-12-18T12:53:41;7.47;;;4.13;;
77078;SDS011;66004;55.096;38.760;2022-12-18T12:56:08;8.18;;;4.40;;
77078;SDS011;66004;55.096;38.760;2022-12-18T13:01:17;7.60;;;4.45;;
77078;SDS011;66004;55.096;38.760;2022-12-18T13:09:14;9.13;;;4.53;;
77078;SDS011;66004;55.096;38.760;2022-12-18T13:11:40;12.50;;;5.45;;
77078;SDS011;66004;55.096;38.760;2022-12-18T13:14:28;7.75;;;3.75;;
77078;SDS011;66004;55.096;38.760;2022-12-18T13:20:06;6.75;;;3.70;;
77078;SDS011;66004;55.096;38.760;2022-12-18T13:25:26;8.02;;;4.43;;
77078;SDS011;66004;55.096;38.760;2022-12-18T13:27:59;8.13;;;4.00;;
77078;SDS011;66004;55.096;38.760;2022-12-18T13:35:42;8.07;;;3.47;;
77078;SDS011;66004;55.096;38.760;2022-12-18T13:38:36;8.23;;;4.03;;
77078;SDS011;66004;55.096;38.760;2022-12-18T13:43:50;7.90;;;3.42;;
77078;SDS011;66004;55.096;38.760;2022-12-18T13:46:22;8.68;;;3.35;;
77078;SDS011;66004;55.096;38.760;2022-12-18T13:48:58;11.50;;;4.43;;
77078;SDS011;66004;55.096;38.760;2022-12-18T13:51:27;8.10;;;3.30;;
77078;SDS011;66004;55.096;38.760;2022-12-18T13:53:58;7.15;;;3.88;;
77078;SDS011;66004;55.096;38.760;2022-12-18T13:56:31;6.65;;;3.67;;
77078;SDS011;66004;55.096;38.760;2022-12-18T14:04:16;7.57;;;4.25;;
77078;SDS011;66004;55.096;38.760;2022-12-18T14:06:50;5.75;;;3.72;;
77078;SDS011;66004;55.096;38.760;2022-12-18T14:09:20;6.45;;;3.58;;
77078;SDS011;66004;55.096;38.760;2022-12-18T14:11:51;7.22;;;4.03;;
77078;SDS011;66004;55.096;38.760;2022-12-18T14:14:40;7.90;;;3.92;;
77078;SDS011;66004;55.096;38.760;2022-12-18T14:17:10;7.00;;;3.05;;
77078;SDS011;66004;55.096;38.760;2022-12-18T14:19:36;6.55;;;3.83;;
77078;SDS011;66004;55.096;38.760;2022-12-18T14:22:10;7.65;;;3.33;;
77078;SDS011;66004;55.096;38.760;2022-12-18T14:24:41;6.82;;;3.72;;
77078;SDS011;66004;55.096;38.760;2022-12-18T14:27:19;6.28;;;3.05;;
77078;SDS011;66004;55.096;38.760;2022-12-18T14:29:47;7.90;;;3.38;;
77078;SDS011;66004;55.096;38.760;2022-12-18T14:32:16;7.68;;;4.25;;
77078;SDS011;66004;55.096;38.760;2022-12-18T14:34:53;9.20;;;4.15;;
77078;SDS011;66004;55.096;38.760;2022-12-18T14:37:21;8.05;;;4.43;;
77078;SDS011;66004;55.096;38.760;2022-12-18T14:39:53;8.70;;;3.92;;
77078;SDS011;66004;55.096;38.760;2022-12-18T14:42:19;10.38;;;4.82;;
77078;SDS011;66004;55.096;38.760;2022-12-18T14:44:45;9.02;;;4.07;;
77078;SDS011;66004;55.096;38.760;2022-12-18T14:47:15;9.77;;;4.60;;
77078;SDS011;66004;55.096;38.760;2022-12-18T14:49:41;7.28;;;3.65;;
77078;SDS011;66004;55.096;38.760;2022-12-18T14:52:22;7.43;;;4.07;;
77078;SDS011;66004;55.096;38.760;2022-12-18T14:54:52;5.38;;;3.17;;
77078;SDS011;66004;55.096;38.760;2022-12-18T14:57:22;6.78;;;3.92;;
77078;SDS011;66004;55.096;38.760;2022-12-18T15:00:05;7.47;;;4.03;;
77078;SDS011;66004;55.096;38.760;2022-12-18T15:02:31;9.63;;;3.83;;
77078;SDS011;66004;55.096;38.760;2022-12-18T15:05:02;6.45;;;3.70;;
77078;SDS011;66004;55.096;38.760;2022-12-18T15:07:43;8.05;;;4.13;;
77078;SDS011;66004;55.096;38.760;2022-12-18T15:10:11;6.50;;;3.20;;
77078;SDS011;66004;55.096;38.760;2022-12-18T15:12:44;4.93;;;2.92;;
77078;SDS011;66004;55.096;38.760;2022-12-18T15:20:50;10.07;;;3.22;;
77078;SDS011;66004;55.096;38.760;2022-12-18T15:23:19;6.43;;;3.22;;
77078;SDS011;66004;55.096;38.760;2022-12-18T15:25:57;6.40;;;3.58;;
77078;SDS011;66004;55.096;38.760;2022-12-18T15:28:34;6.35;;;3.22;;
77078;SDS011;66004;55.096;38.760;2022-12-18T15:36:18;6.47;;;3.75;;
77078;SDS011;66004;55.096;38.760;2022-12-18T15:38:48;8.15;;;4.10;;
77078;SDS011;66004;55.096;38.760;2022-12-18T15:41:15;6.40;;;3.75;;
77078;SDS011;66004;55.096;38.760;2022-12-18T15:43:46;7.18;;;3.53;;
77078;SDS011;66004;55.096;38.760;2022-12-18T15:46:14;6.50;;;3.83;;
77078;SDS011;66004;55.096;38.760;2022-12-18T15:48:41;5.32;;;3.13;;
77078;SDS011;66004;55.096;38.760;2022-12-18T15:51:16;5.75;;;3.20;;
77078;SDS011;66004;55.096;38.760;2022-12-18T15:53:45;4.35;;;2.88;;
77078;SDS011;66004;55.096;38.760;2022-12-18T15:56:13;4.10;;;2.35;;
77078;SDS011;66004;55.096;38.760;2022-12-18T15:58:58;6.60;;;3.25;;
77078;SDS011;66004;55.096;38.760;2022-12-18T16:01:25;5.78;;;3.35;;
77078;SDS011;66004;55.096;38.760;2022-12-18T16:03:52;5.50;;;2.65;;
77078;SDS011;66004;55.096;38.760;2022-12-18T16:06:19;6.32;;;3.58;;
77078;SDS011;66004;55.096;38.760;2022-12-18T16:08:44;7.40;;;3.75;;
77078;SDS011;66004;55.096;38.760;2022-12-18T16:14:04;5.07;;;3.03;;
77078;SDS011;66004;55.096;38.760;2022-12-18T16:16:31;6.63;;;3.53;;
77078;SDS011;66004;55.096;38.760;2022-12-18T16:18:56;4.35;;;2.72;;
77078;SDS011;66004;55.096;38.760;2022-12-18T16:21:22;5.05;;;2.90;;
77078;SDS011;66004;55.096;38.760;2022-12-18T16:23:47;7.13;;;3.28;;
77078;SDS011;66004;55.096;38.760;2022-12-18T16:26:13;5.15;;;2.97;;
77078;SDS011;66004;55.096;38.760;2022-12-18T16:28:38;4.32;;;2.90;;
77078;SDS011;66004;55.096;38.760;2022-12-18T16:31:04;4.72;;;3.17;;
77078;SDS011;66004;55.096;38.760;2022-12-18T16:33:30;6.13;;;3.15;;
77078;SDS011;66004;55.096;38.760;2022-12-18T16:35:55;4.15;;;2.65;;
77078;SDS011;66004;55.096;38.760;2022-12-18T16:38:21;4.25;;;2.35;;
77078;SDS011;66004;55.096;38.760;2022-12-18T16:40:47;6.13;;;2.75;;
77078;SDS011;66004;55.096;38.760;2022-12-18T16:43:31;5.22;;;2.47;;
77078;SDS011;66004;55.096;38.760;2022-12-18T16:45:58;6.28;;;2.78;;
77078;SDS011;66004;55.096;38.760;2022-12-18T16:48:24;4.30;;;2.50;;
77078;SDS011;66004;55.096;38.760;2022-12-18T16:50:49;5.68;;;3.03;;
77078;SDS011;66004;55.096;38.760;2022-12-18T16:53:15;5.80;;;3.28;;
77078;SDS011;66004;55.096;38.760;2022-12-18T16:55:40;8.05;;;3.72;;
77078;SDS011;66004;55.096;38.760;2022-12-18T16:58:06;5.38;;;2.53;;
77078;SDS011;66004;55.096;38.760;2022-12-18T17:00:32;6.07;;;2.90;;
77078;SDS011;66004;55.096;38.760;2022-12-18T17:02:57;7.30;;;4.03;;
77078;SDS011;66004;55.096;38.760;2022-12-18T17:05:23;7.25;;;3.80;;
77078;SDS011;66004;55.096;38.760;2022-12-18T17:07:48;7.85;;;3.10;;